Time;durP1;ratioP1;P1;durP2;ratioP2;P2;SDS_P1;SDS_P2;PMS_P1;PMS_P2;Temp;Humidity;BMP_temperature;BMP_pressure;BME280_temperature;BME280_humidity;BME280_pressure;Samples;Min_cycle;Max_cycle;Signal;HPM_P1;HPM_P2
2022/08/29 00:02:25;;;;;;;7.68;3.65;;;15.20;99.90;;;;;;4938799;28;95215;-30
2022/08/29 00:04:50;;;;;;;4.22;2.85;;;15.20;99.90;;;;;;4939132;28;94507;-31
2022/08/29 00:07:16;;;;;;;6.80;3.40;;;15.20;99.90;;;;;;4938012;28;94554;-33
2022/08/29 00:09:42;;;;;;;6.25;3.03;;;15.20;99.90;;;;;;4939756;28;93408;-31
2022/08/29 00:12:08;;;;;;;5.32;2.95;;;15.30;99.90;;;;;;4938486;28;95972;-32
2022/08/29 00:14:34;;;;;;;12.73;3.60;;;15.20;99.90;;;;;;4938651;28;94965;-34
2022/08/29 00:17:00;;;;;;;5.97;4.05;;;15.30;99.90;;;;;;4939349;28;93348;-30
2022/08/29 00:19:26;;;;;;;7.53;3.40;;;15.30;99.90;;;;;;4938413;28;93017;-31
2022/08/29 00:21:52;;;;;;;4.40;2.45;;;15.30;99.90;;;;;;4938675;28;94849;-33
2022/08/29 00:24:18;;;;;;;5.63;3.50;;;15.20;99.90;;;;;;4938877;28;95022;-32
2022/08/29 00:26:43;;;;;;;6.93;3.53;;;15.20;99.90;;;;;;4939099;28;92045;-30
2022/08/29 00:29:09;;;;;;;3.15;2.72;;;15.20;99.90;;;;;;4939192;28;92078;-29
2022/08/29 00:31:35;;;;;;;8.48;2.85;;;15.20;99.90;;;;;;4973663;23;94782;-31
2022/08/29 00:34:01;;;;;;;4.57;3.42;;;15.30;99.90;;;;;;4938320;28;95747;-32
2022/08/29 00:36:26;;;;;;;5.55;3.40;;;15.20;99.90;;;;;;4938543;28;94188;-31
2022/08/29 00:38:52;;;;;;;6.05;3.17;;;15.20;99.90;;;;;;4938525;28;93776;-35
2022/08/29 00:41:18;;;;;;;8.82;3.70;;;15.30;99.90;;;;;;4937846;28;95240;-33
2022/08/29 00:43:44;;;;;;;7.65;3.08;;;15.30;99.90;;;;;;4937257;28;94704;-32
2022/08/29 00:46:40;;;;;;;4.40;3.70;;;15.30;99.90;;;;;;4939655;28;93435;-34
2022/08/29 00:49:21;;;;;;;5.22;3.22;;;15.30;99.90;;;;;;4939187;28;92242;-30
2022/08/29 00:51:47;;;;;;;5.15;3.33;;;15.30;99.90;;;;;;4938056;28;94845;-33
2022/08/29 00:54:13;;;;;;;5.30;3.38;;;15.30;99.90;;;;;;4937230;28;94473;-31
2022/08/29 00:56:41;;;;;;;4.65;3.33;;;15.30;99.90;;;;;;4938127;28;94602;-30
2022/08/29 00:59:18;;;;;;;6.00;3.30;;;15.30;99.90;;;;;;4938560;28;93701;-31
2022/08/29 01:01:45;;;;;;;5.20;3.47;;;15.30;99.90;;;;;;4938735;28;94759;-30
2022/08/29 01:04:12;;;;;;;7.88;4.10;;;15.30;99.90;;;;;;4937586;28;93145;-30
2022/08/29 01:06:39;;;;;;;5.43;3.53;;;15.30;99.90;;;;;;4937983;28;93079;-30
2022/08/29 01:09:06;;;;;;;6.15;3.63;;;15.40;99.90;;;;;;4938718;28;94121;-32
2022/08/29 01:14:19;;;;;;;6.55;3.83;;;15.40;99.90;;;;;;4938246;28;94561;-29
2022/08/29 01:16:46;;;;;;;5.45;3.30;;;15.40;99.90;;;;;;4938150;28;94441;-32
2022/08/29 01:19:38;;;;;;;4.73;3.20;;;15.30;99.90;;;;;;4937344;28;93141;-32
2022/08/29 01:22:28;;;;;;;10.57;4.22;;;15.40;99.90;;;;;;4930737;28;94488;-33
2022/08/29 01:24:56;;;;;;;5.05;4.47;;;15.30;99.90;;;;;;4937714;28;95739;-32
2022/08/29 01:27:29;;;;;;;6.40;3.47;;;15.40;99.90;;;;;;4938102;28;93713;-31
2022/08/29 01:29:55;;;;;;;6.03;3.95;;;15.40;99.90;;;;;;4938206;28;93526;-32
2022/08/29 01:32:23;;;;;;;6.53;4.10;;;15.40;99.90;;;;;;4936802;28;94742;-31
2022/08/29 01:34:49;;;;;;;6.85;3.80;;;15.40;99.90;;;;;;4938026;28;94986;-35
2022/08/29 01:37:16;;;;;;;8.15;3.53;;;15.40;99.90;;;;;;4937492;28;94073;-30
2022/08/29 01:39:44;;;;;;;9.07;4.17;;;15.30;99.90;;;;;;4937956;28;92772;-30
2022/08/29 01:42:16;;;;;;;5.05;3.35;;;15.40;99.90;;;;;;4937311;28;95298;-30
2022/08/29 01:44:48;;;;;;;4.88;3.53;;;15.40;99.90;;;;;;4937668;28;93496;-31
2022/08/29 01:47:14;;;;;;;6.68;3.25;;;15.40;99.90;;;;;;4937822;28;94538;-30
2022/08/29 01:49:39;;;;;;;4.45;3.83;;;15.40;99.90;;;;;;4937094;28;92212;-30
2022/08/29 01:52:06;;;;;;;6.45;3.40;;;15.40;99.90;;;;;;4937648;28;94742;-30
2022/08/29 01:54:33;;;;;;;5.18;3.63;;;15.40;99.90;;;;;;4936419;28;94976;-34
2022/08/29 01:57:00;;;;;;;8.43;4.28;;;15.40;99.90;;;;;;4937671;28;94298;-31
2022/08/29 01:59:27;;;;;;;5.22;3.75;;;15.40;99.90;;;;;;4937674;28;92667;-31
2022/08/29 02:01:58;;;;;;;5.43;4.30;;;15.40;99.90;;;;;;4937265;28;95084;-32
2022/08/29 02:04:24;;;;;;;3.88;3.22;;;15.40;99.90;;;;;;4939174;28;94284;-31
2022/08/29 02:06:49;;;;;;;6.05;4.45;;;15.40;99.90;;;;;;4941101;28;92562;-31
2022/08/29 02:09:16;;;;;;;5.72;3.95;;;15.40;99.90;;;;;;4940510;28;92173;-32
2022/08/29 02:11:44;;;;;;;4.38;3.28;;;15.30;99.90;;;;;;4940967;28;95786;-29
2022/08/29 02:14:09;;;;;;;6.40;4.25;;;15.30;99.90;;;;;;4940303;28;95795;-33
2022/08/29 02:16:35;;;;;;;5.35;3.58;;;15.40;99.90;;;;;;4940747;28;94550;-32
2022/08/29 02:19:01;;;;;;;10.35;3.67;;;15.40;99.90;;;;;;4940922;28;92245;-30
2022/08/29 02:21:29;;;;;;;6.32;3.50;;;15.40;99.90;;;;;;4940260;28;94486;-31
2022/08/29 02:23:58;;;;;;;7.10;4.05;;;15.40;99.90;;;;;;4940204;28;94058;-31
2022/08/29 02:26:24;;;;;;;8.07;3.72;;;15.40;99.90;;;;;;4940596;28;94435;-34
2022/08/29 02:28:51;;;;;;;4.95;3.63;;;15.40;99.90;;;;;;4941255;28;91852;-30
2022/08/29 02:31:21;;;;;;;6.03;4.00;;;15.40;99.90;;;;;;4939193;28;93427;-32
2022/08/29 02:33:47;;;;;;;7.00;4.35;;;15.30;99.90;;;;;;4939204;28;94981;-32
2022/08/29 02:36:13;;;;;;;5.47;3.85;;;15.40;99.90;;;;;;4940018;28;94233;-29
2022/08/29 02:38:39;;;;;;;6.18;3.78;;;15.30;99.90;;;;;;4940236;28;94303;-30
2022/08/29 02:41:05;;;;;;;5.80;3.55;;;15.30;99.90;;;;;;4937710;28;94589;-34
2022/08/29 02:43:31;;;;;;;7.00;3.90;;;15.30;99.90;;;;;;4939862;28;94079;-31
2022/08/29 02:45:57;;;;;;;4.97;3.92;;;15.30;99.90;;;;;;4940014;28;94548;-31
2022/08/29 02:48:24;;;;;;;7.20;4.43;;;15.30;99.90;;;;;;4938165;28;93390;-31
2022/08/29 02:50:53;;;;;;;6.63;3.70;;;15.30;99.90;;;;;;4939849;28;94113;-30
2022/08/29 02:53:23;;;;;;;3.97;3.67;;;15.20;99.90;;;;;;4940629;28;94440;-31
2022/08/29 02:55:50;;;;;;;4.93;4.05;;;15.20;99.90;;;;;;4940278;28;92144;-31
2022/08/29 02:58:17;;;;;;;6.00;4.47;;;15.30;99.90;;;;;;4939754;28;92897;-33
2022/08/29 03:00:43;;;;;;;6.72;3.95;;;15.30;99.90;;;;;;4938508;28;95404;-30
2022/08/29 03:03:09;;;;;;;5.18;4.57;;;15.20;99.90;;;;;;4939728;28;95970;-31
2022/08/29 03:05:36;;;;;;;5.90;4.10;;;15.20;99.90;;;;;;4939865;28;94116;-32
2022/08/29 03:08:06;;;;;;;14.95;3.65;;;15.20;99.90;;;;;;4939113;28;93060;-31
2022/08/29 03:10:32;;;;;;;6.80;4.32;;;15.20;99.90;;;;;;4939306;28;94570;-35
2022/08/29 03:12:58;;;;;;;8.57;4.18;;;15.20;99.90;;;;;;4939933;28;94412;-30
2022/08/29 03:15:24;;;;;;;6.45;3.13;;;15.20;99.90;;;;;;4939453;28;92508;-33
2022/08/29 03:17:50;;;;;;;9.85;4.70;;;15.20;99.90;;;;;;4939935;28;93788;-35
2022/08/29 03:20:18;;;;;;;7.47;3.75;;;15.20;99.90;;;;;;4939501;28;95572;-32
2022/08/29 03:22:45;;;;;;;4.47;3.67;;;15.20;99.90;;;;;;4939181;28;96351;-33
2022/08/29 03:25:12;;;;;;;7.28;4.72;;;15.20;99.90;;;;;;4939114;28;95248;-33
2022/08/29 03:27:38;;;;;;;6.47;4.40;;;15.20;99.90;;;;;;4939811;28;93094;-31
2022/08/29 03:30:06;;;;;;;8.48;3.78;;;15.20;99.90;;;;;;4939807;28;95998;-31
2022/08/29 03:32:32;;;;;;;5.18;4.13;;;15.20;99.90;;;;;;4938466;28;95804;-33
2022/08/29 03:34:57;;;;;;;7.95;3.70;;;15.20;99.90;;;;;;4939979;28;92228;-30
2022/08/29 03:37:25;;;;;;;4.95;3.65;;;15.20;99.90;;;;;;4938991;28;92163;-31
2022/08/29 03:39:52;;;;;;;9.65;4.18;;;15.20;99.90;;;;;;4939526;28;94586;-34
2022/08/29 03:42:17;;;;;;;5.93;4.15;;;15.20;99.90;;;;;;4938426;28;94591;-36
2022/08/29 03:44:43;;;;;;;5.88;4.53;;;15.20;99.90;;;;;;4939605;28;94014;-33
2022/08/29 03:47:09;;;;;;;6.65;4.03;;;15.20;99.90;;;;;;4938788;28;94290;-35
2022/08/29 03:49:35;;;;;;;7.30;4.38;;;15.20;99.90;;;;;;4938734;28;95663;-30
2022/08/29 03:52:01;;;;;;;6.72;3.75;;;15.20;99.90;;;;;;4939319;28;96141;-34
2022/08/29 03:54:27;;;;;;;8.32;4.20;;;15.20;99.90;;;;;;4939490;28;93568;-30
2022/08/29 03:56:54;;;;;;;8.20;4.53;;;15.20;99.90;;;;;;4938999;28;92831;-32
2022/08/29 03:59:20;;;;;;;7.18;3.97;;;15.20;99.90;;;;;;4938104;28;94543;-32
2022/08/29 04:01:46;;;;;;;4.50;3.97;;;15.20;99.90;;;;;;4939445;28;94225;-31
2022/08/29 04:05:05;;;;;;;7.43;3.20;;;15.20;99.90;;;;;;4938728;28;94192;-33
2022/08/29 04:06:58;;;;;;;5.82;3.55;;;15.20;99.90;;;;;;4938795;28;92483;-31
2022/08/29 04:09:24;;;;;;;5.45;3.58;;;15.20;99.90;;;;;;4938917;28;95269;-31
2022/08/29 04:11:50;;;;;;;5.13;3.95;;;15.20;99.90;;;;;;4939069;28;94350;-30
2022/08/29 04:14:15;;;;;;;4.40;3.15;;;15.30;99.90;;;;;;4938591;28;93084;-35
2022/08/29 04:16:45;;;;;;;12.90;5.15;;;15.20;99.90;;;;;;4939226;28;93556;-29
2022/08/29 04:19:10;;;;;;;5.75;4.20;;;15.20;99.90;;;;;;4939165;28;94817;-32
2022/08/29 04:21:36;;;;;;;16.90;4.65;;;15.20;99.90;;;;;;4937580;28;95272;-32
2022/08/29 04:24:01;;;;;;;8.98;4.05;;;15.10;99.90;;;;;;4939444;28;93491;-31
2022/08/29 04:26:27;;;;;;;7.03;3.47;;;15.10;99.90;;;;;;4938165;28;93636;-32
2022/08/29 04:28:53;;;;;;;6.18;3.60;;;15.10;99.90;;;;;;4937915;28;94422;-32
2022/08/29 04:31:20;;;;;;;8.50;4.25;;;15.10;99.90;;;;;;4937556;28;95281;-31
2022/08/29 04:33:47;;;;;;;8.15;4.22;;;15.20;99.90;;;;;;4938337;28;93159;-31
2022/08/29 04:36:13;;;;;;;5.23;4.73;;;15.10;99.90;;;;;;4938407;28;92612;-36
2022/08/29 04:38:39;;;;;;;6.55;4.40;;;15.00;99.90;;;;;;4937890;28;97035;-31
2022/08/29 04:41:07;;;;;;;7.45;4.57;;;15.00;99.90;;;;;;4937822;28;95529;-30
2022/08/29 04:43:33;;;;;;;9.45;4.53;;;15.00;99.90;;;;;;4938041;28;94522;-34
2022/08/29 04:45:59;;;;;;;15.77;4.85;;;14.90;99.90;;;;;;4938234;28;92332;-31
2022/08/29 04:48:25;;;;;;;10.38;4.90;;;14.90;99.90;;;;;;4937505;28;94513;-29
2022/08/29 04:50:59;;;;;;;10.65;3.55;;;14.80;99.90;;;;;;4938349;28;94568;-33
2022/08/29 04:53:25;;;;;;;9.48;3.85;;;14.80;99.90;;;;;;4937859;28;94230;-31
2022/08/29 04:56:11;;;;;;;6.80;3.58;;;14.80;99.90;;;;;;4938280;28;92926;-34
2022/08/29 04:58:41;;;;;;;7.85;3.90;;;14.70;99.90;;;;;;4938310;28;94833;-31
2022/08/29 05:01:07;;;;;;;7.22;3.83;;;14.70;99.90;;;;;;4938230;28;94507;-32
2022/08/29 05:03:33;;;;;;;10.23;3.78;;;14.70;99.90;;;;;;4937414;28;94468;-33
2022/08/29 05:06:01;;;;;;;8.07;4.00;;;14.70;99.90;;;;;;4937985;28;94212;-35
2022/08/29 05:08:28;;;;;;;7.93;4.53;;;14.70;99.90;;;;;;4937647;28;94729;-31
2022/08/29 05:10:54;;;;;;;7.25;4.68;;;14.70;99.90;;;;;;4937892;28;94517;-30
2022/08/29 05:13:21;;;;;;;5.72;3.80;;;14.70;99.90;;;;;;4937961;28;93804;-32
2022/08/29 05:15:48;;;;;;;6.57;4.00;;;14.70;99.90;;;;;;4927370;28;93903;-34
2022/08/29 05:18:16;;;;;;;4.38;3.58;;;14.70;99.90;;;;;;4924155;28;94556;-33
2022/08/29 05:20:44;;;;;;;17.13;4.60;;;14.70;99.90;;;;;;4937145;28;94323;-31
2022/08/29 05:23:10;;;;;;;10.90;4.57;;;14.70;99.90;;;;;;4937478;28;93060;-30
2022/08/29 05:25:35;;;;;;;6.82;4.28;;;14.70;99.90;;;;;;4937494;28;94031;-32
2022/08/29 05:28:02;;;;;;;10.45;3.55;;;14.70;99.90;;;;;;4936591;28;95584;-29
2022/08/29 05:30:27;;;;;;;3.92;3.47;;;14.80;99.90;;;;;;4937162;28;95401;-33
2022/08/29 05:32:53;;;;;;;10.77;5.50;;;14.80;99.90;;;;;;4938021;28;92520;-30
2022/08/29 05:35:20;;;;;;;46.20;7.32;;;14.90;99.90;;;;;;4937069;28;93940;-33
2022/08/29 05:37:45;;;;;;;30.17;7.10;;;14.90;99.90;;;;;;4937667;28;94573;-31
2022/08/29 05:40:11;;;;;;;32.72;5.03;;;15.00;99.90;;;;;;4936895;28;95323;-33
2022/08/29 05:42:37;;;;;;;22.73;5.82;;;15.00;99.90;;;;;;4926814;28;92252;-32
2022/08/29 05:45:06;;;;;;;6.93;4.35;;;15.10;99.90;;;;;;4937536;28;91925;-31
2022/08/29 05:47:32;;;;;;;8.18;3.92;;;15.20;99.90;;;;;;4936551;28;95493;-32
2022/08/29 05:49:58;;;;;;;4.40;3.42;;;15.30;99.90;;;;;;4937261;28;94176;-32
2022/08/29 05:52:25;;;;;;;13.80;4.43;;;15.40;99.90;;;;;;4936528;28;95862;-35
2022/08/29 05:54:51;;;;;;;8.02;4.65;;;15.50;99.90;;;;;;4936931;28;94298;-31
2022/08/29 05:57:19;;;;;;;38.95;8.75;;;15.50;99.90;;;;;;4935789;28;94488;-32
2022/08/29 05:59:46;;;;;;;26.90;4.95;;;15.60;99.90;;;;;;4936222;28;94740;-35
2022/08/29 06:02:12;;;;;;;5.75;3.58;;;15.70;99.90;;;;;;4937844;28;93552;-34
2022/08/29 06:04:38;;;;;;;6.75;4.55;;;15.80;99.90;;;;;;4936705;28;93323;-30
2022/08/29 06:07:05;;;;;;;5.85;2.90;;;15.80;99.90;;;;;;4937341;28;94673;-35
2022/08/29 06:09:30;;;;;;;6.47;3.28;;;15.90;99.90;;;;;;4937051;28;94362;-32
2022/08/29 06:11:59;;;;;;;6.85;2.95;;;16.00;99.90;;;;;;4937133;28;92178;-32
2022/08/29 06:14:25;;;;;;;7.90;3.47;;;16.00;99.90;;;;;;4936954;28;94709;-34
2022/08/29 06:16:51;;;;;;;34.55;5.68;;;16.10;99.90;;;;;;4936983;28;96021;-30
2022/08/29 06:19:17;;;;;;;12.20;2.97;;;16.20;99.90;;;;;;4936658;28;95482;-31
2022/08/29 06:21:42;;;;;;;4.47;3.55;;;16.40;99.90;;;;;;4937328;28;93048;-32
2022/08/29 06:24:08;;;;;;;7.32;3.60;;;16.50;99.90;;;;;;4936961;28;93519;-32
2022/08/29 06:26:34;;;;;;;32.72;7.72;;;16.60;99.90;;;;;;4936192;28;95266;-35
2022/08/29 06:29:04;;;;;;;20.25;5.20;;;16.60;99.90;;;;;;4937420;28;94374;-32
2022/08/29 06:31:30;;;;;;;8.25;3.40;;;16.70;99.90;;;;;;4936277;28;93074;-33
2022/08/29 06:33:58;;;;;;;5.00;3.22;;;16.80;99.90;;;;;;4935915;28;91923;-32
2022/08/29 06:36:25;;;;;;;11.00;3.95;;;16.90;99.90;;;;;;4936091;28;94914;-32
2022/08/29 06:38:54;;;;;;;5.40;3.40;;;16.90;99.90;;;;;;4937058;28;95396;-31
2022/08/29 06:41:19;;;;;;;;;;;16.90;99.90;;;;;;4936882;28;93145;-34
2022/08/29 06:43:45;;;;;;;4.50;2.97;;;17.00;99.90;;;;;;4937441;28;92118;-32
2022/08/29 06:46:38;;;;;;;5.70;3.60;;;17.10;99.90;;;;;;4936955;28;94799;-31
2022/08/29 06:49:07;;;;;;;8.30;3.33;;;17.20;99.90;;;;;;4935767;28;95741;-31
2022/08/29 06:51:40;;;;;;;16.08;3.40;;;17.30;99.90;;;;;;4939568;28;94141;-31
2022/08/29 06:54:07;;;;;;;5.72;3.17;;;17.30;99.90;;;;;;4940105;28;94228;-31
2022/08/29 06:56:34;;;;;;;7.60;3.45;;;17.40;99.90;;;;;;4939141;28;94676;-31
2022/08/29 06:59:00;;;;;;;11.50;3.20;;;17.50;99.90;;;;;;4939166;28;94503;-32
2022/08/29 07:01:26;;;;;;;4.20;2.70;;;17.60;99.90;;;;;;4940168;28;93363;-34
2022/08/29 07:03:53;;;;;;;5.32;2.88;;;17.70;99.90;;;;;;4939716;28;94345;-33
2022/08/29 07:06:19;;;;;;;8.27;3.30;;;17.70;99.90;;;;;;4938837;28;95622;-32
2022/08/29 07:08:45;;;;;;;5.88;2.47;;;17.70;99.90;;;;;;4939527;28;95332;-32
2022/08/29 07:11:11;;;;;;;7.53;2.85;;;17.70;99.90;;;;;;4939219;28;92963;-30
2022/08/29 07:13:38;;;;;;;10.07;3.13;;;17.80;99.90;;;;;;4939771;28;93371;-29
2022/08/29 07:16:10;;;;;;;10.50;4.07;;;17.80;99.90;;;;;;4940188;28;94889;-32
2022/08/29 07:18:36;;;;;;;5.20;2.95;;;17.80;99.90;;;;;;4939025;28;94462;-33
2022/08/29 07:21:09;;;;;;;3.67;3.38;;;17.90;99.90;;;;;;4939633;28;94161;-32
2022/08/29 07:23:36;;;;;;;10.43;3.17;;;18.00;99.90;;;;;;4939740;28;93649;-36
2022/08/29 07:26:07;;;;;;;3.25;2.95;;;18.20;99.90;;;;;;4939526;28;96331;-30
2022/08/29 07:28:34;;;;;;;6.43;3.53;;;18.20;99.90;;;;;;4938885;28;93583;-34
2022/08/29 07:31:01;;;;;;;8.52;3.75;;;18.30;99.90;;;;;;4938346;28;94533;-33
2022/08/29 07:33:26;;;;;;;6.55;3.17;;;18.40;99.90;;;;;;4938604;28;94121;-32
2022/08/29 07:35:53;;;;;;;7.25;3.78;;;18.50;99.90;;;;;;4939094;28;94674;-32
2022/08/29 07:38:19;;;;;;;10.07;3.97;;;18.50;99.90;;;;;;4937997;28;94366;-32
2022/08/29 07:40:45;;;;;;;10.88;3.67;;;18.50;99.90;;;;;;4939334;28;92116;-31
2022/08/29 07:43:11;;;;;;;5.15;3.47;;;18.60;99.90;;;;;;4939068;28;93440;-31
2022/08/29 07:45:38;;;;;;;8.40;2.95;;;18.60;99.90;;;;;;4938428;28;94711;-31
2022/08/29 07:48:04;;;;;;;7.38;3.67;;;18.60;99.90;;;;;;4938731;28;93616;-33
2022/08/29 07:50:30;;;;;;;8.05;3.75;;;18.70;99.90;;;;;;4939103;28;92871;-29
2022/08/29 07:52:55;;;;;;;5.80;4.03;;;18.70;99.90;;;;;;4938157;28;94669;-32
2022/08/29 07:55:21;;;;;;;9.48;3.05;;;18.80;99.90;;;;;;4938132;28;96853;-30
2022/08/29 07:57:50;;;;;;;12.88;4.40;;;18.80;99.90;;;;;;4937778;28;94920;-30
2022/08/29 08:00:16;;;;;;;6.78;3.30;;;18.80;99.90;;;;;;4938243;28;93555;-34
2022/08/29 08:02:41;;;;;;;9.18;4.72;;;18.70;99.90;;;;;;4937743;28;94786;-30
2022/08/29 08:05:07;;;;;;;6.25;3.50;;;18.80;99.90;;;;;;4938218;28;94711;-30
2022/08/29 08:07:34;;;;;;;5.82;3.17;;;18.80;99.90;;;;;;4937328;28;92630;-35
2022/08/29 08:10:01;;;;;;;8.23;4.30;;;18.80;99.90;;;;;;4925291;28;92181;-34
2022/08/29 08:12:26;;;;;;;4.50;4.05;;;18.90;99.90;;;;;;4935916;28;91524;-34
2022/08/29 08:14:52;;;;;;;7.35;3.90;;;18.90;99.90;;;;;;4935256;28;94793;-35
2022/08/29 08:17:18;;;;;;;8.80;3.67;;;18.90;99.90;;;;;;4936031;28;94197;-32
2022/08/29 08:19:43;;;;;;;12.90;4.47;;;18.90;99.90;;;;;;4933512;28;94217;-34
2022/08/29 08:22:09;;;;;;;7.65;4.05;;;19.00;99.90;;;;;;4936799;28;92135;-34
2022/08/29 08:24:35;;;;;;;8.55;3.60;;;19.20;99.90;;;;;;4935558;28;95011;-34
2022/08/29 08:27:01;;;;;;;7.78;3.50;;;19.40;99.90;;;;;;4935844;28;94871;-30
2022/08/29 08:29:26;;;;;;;9.82;4.88;;;19.50;99.90;;;;;;4936257;28;94278;-34
2022/08/29 08:31:52;;;;;;;4.47;3.35;;;19.60;99.90;;;;;;4934894;28;94435;-36
2022/08/29 08:34:18;;;;;;;9.40;3.60;;;19.70;99.90;;;;;;4935666;28;94027;-34
2022/08/29 08:36:45;;;;;;;8.88;3.47;;;19.70;99.90;;;;;;4935682;28;93056;-32
2022/08/29 08:39:12;;;;;;;4.57;3.60;;;19.80;99.90;;;;;;4935222;28;93412;-32
2022/08/29 08:42:10;;;;;;;11.85;4.22;;;19.80;99.90;;;;;;4936140;28;94548;-31
2022/08/29 08:45:02;;;;;;;6.10;4.05;;;19.70;99.90;;;;;;4932010;28;96679;-33
2022/08/29 08:47:32;;;;;;;6.13;4.00;;;19.60;99.90;;;;;;4922795;28;95543;-33
2022/08/29 08:50:16;;;;;;;5.95;4.30;;;19.60;99.90;;;;;;4935435;28;94568;-32
2022/08/29 08:52:47;;;;;;;6.43;3.28;;;19.70;99.90;;;;;;4936215;28;92937;-34
2022/08/29 08:55:26;;;;;;;7.90;4.93;;;19.60;99.90;;;;;;4935631;28;94932;-31
2022/08/29 08:58:08;;;;;;;10.10;5.10;;;19.60;99.90;;;;;;4935893;28;94388;-31
2022/08/29 09:00:41;;;;;;;5.68;4.03;;;19.70;99.90;;;;;;4935212;28;92832;-31
2022/08/29 09:03:40;;;;;;;15.27;5.38;;;19.90;99.90;;;;;;4936208;28;92751;-31
2022/08/29 09:06:17;;;;;;;11.52;5.07;;;20.30;99.90;;;;;;4935479;28;94704;-31
2022/08/29 09:08:57;;;;;;;7.95;4.28;;;20.30;99.90;;;;;;4935381;28;93447;-31
2022/08/29 09:11:32;;;;;;;7.20;4.45;;;20.40;99.90;;;;;;4935676;28;95466;-32
2022/08/29 09:14:19;;;;;;;5.57;3.85;;;20.40;99.90;;;;;;4934394;28;94692;-33
2022/08/29 09:16:49;;;;;;;16.57;6.17;;;20.70;99.90;;;;;;4935305;28;94712;-34
2022/08/29 09:19:15;;;;;;;8.50;4.25;;;20.70;99.90;;;;;;4934300;28;94233;-34
2022/08/29 09:22:21;;;;;;;6.10;3.72;;;20.90;99.90;;;;;;4936267;28;93443;-31
2022/08/29 09:24:57;;;;;;;17.00;4.10;;;20.90;99.90;;;;;;4935190;28;94106;-30
2022/08/29 09:27:27;;;;;;;17.08;4.05;;;20.90;99.90;;;;;;4934537;28;94785;-31
2022/08/29 09:30:05;;;;;;;7.45;4.05;;;20.90;99.90;;;;;;4934905;28;94347;-34
2022/08/29 09:32:31;;;;;;;10.85;5.50;;;20.80;99.90;;;;;;4933200;28;93295;-33
2022/08/29 09:34:58;;;;;;;14.52;5.00;;;20.80;99.90;;;;;;4919584;28;93482;-34
2022/08/29 09:37:33;;;;;;;6.13;4.72;;;20.80;99.90;;;;;;4933659;28;95731;-32
2022/08/29 09:40:10;;;;;;;5.55;3.53;;;20.70;99.90;;;;;;4933252;28;95990;-29
2022/08/29 09:42:40;;;;;;;6.38;4.25;;;20.60;99.90;;;;;;4934360;28;94607;-33
2022/08/29 09:45:24;;;;;;;9.98;4.43;;;20.60;99.90;;;;;;4934194;28;93514;-32
2022/08/29 09:48:13;;;;;;;10.15;4.95;;;20.70;99.90;;;;;;4934421;28;94617;-31
2022/08/29 09:50:38;;;;;;;14.25;5.55;;;20.70;99.90;;;;;;4934220;28;96167;-31
2022/08/29 09:53:05;;;;;;;4.88;4.00;;;20.60;99.90;;;;;;4932116;28;92238;-33
2022/08/29 09:55:43;;;;;;;6.93;4.22;;;20.60;99.90;;;;;;4935064;28;93697;-32
2022/08/29 09:58:15;;;;;;;7.68;5.05;;;20.50;99.90;;;;;;4935018;28;94894;-32
2022/08/29 10:01:00;;;;;;;5.57;3.78;;;20.40;99.90;;;;;;4931782;28;94409;-34
2022/08/29 10:03:31;;;;;;;10.68;4.18;;;20.40;99.90;;;;;;4932544;28;95999;-34
2022/08/29 10:06:21;;;;;;;5.80;5.22;;;20.40;99.90;;;;;;4934145;28;94715;-32
2022/08/29 10:09:03;;;;;;;9.05;5.28;;;20.40;99.90;;;;;;4926734;28;94782;-33
2022/08/29 10:11:59;;;;;;;12.20;5.28;;;20.30;99.90;;;;;;4933268;28;94602;-34
2022/08/29 10:14:39;;;;;;;9.88;4.15;;;20.30;99.90;;;;;;4933921;28;94464;-31
2022/08/29 10:20:04;;;;;;;;;;;20.30;99.90;;;;;;4933422;28;94962;-33
2022/08/29 10:22:40;;;;;;;8.18;5.07;;;20.30;99.90;;;;;;4935552;28;94379;-36
2022/08/29 10:25:20;;;;;;;10.88;4.80;;;20.40;99.90;;;;;;4935686;28;93628;-33
2022/08/29 10:27:59;;;;;;;10.63;5.32;;;20.50;99.90;;;;;;4937839;28;94286;-32
2022/08/29 10:30:53;;;;;;;3.90;3.60;;;20.60;99.90;;;;;;4936550;28;95628;-34
2022/08/29 10:33:33;;;;;;;8.48;4.53;;;20.70;99.90;;;;;;4936330;28;97155;-33
2022/08/29 10:36:32;;;;;;;9.60;5.35;;;20.70;99.90;;;;;;4937730;28;94232;-33
2022/08/29 10:39:14;;;;;;;6.20;3.83;;;20.70;99.90;;;;;;4933031;28;93455;-31
2022/08/29 10:41:52;;;;;;;5.78;3.67;;;20.70;99.90;;;;;;4933085;28;94774;-31
2022/08/29 10:44:21;;;;;;;;;;;20.90;99.90;;;;;;4937037;28;95279;-32
2022/08/29 10:46:59;;;;;;;10.05;6.70;;;21.10;99.90;;;;;;4925378;28;93769;-32
2022/08/29 10:50:02;;;;;;;8.18;4.40;;;21.30;99.90;;;;;;4928244;28;92340;-33
2022/08/29 10:52:38;;;;;;;7.25;5.20;;;21.50;99.90;;;;;;4922666;28;94722;-32
2022/08/29 10:55:31;;;;;;;8.93;4.70;;;21.60;99.90;;;;;;4936600;28;94403;-35
2022/08/29 10:58:08;;;;;;;7.50;4.43;;;21.80;99.90;;;;;;4936458;28;94313;-33
2022/08/29 11:00:47;;;;;;;4.78;4.10;;;21.90;99.90;;;;;;4936018;28;94890;-30
2022/08/29 11:03:40;;;;;;;10.55;4.20;;;21.90;99.90;;;;;;4936148;28;95345;-31
2022/08/29 11:06:32;;;;;;;9.70;4.78;;;22.10;99.90;;;;;;4936922;28;94981;-31
2022/08/29 11:09:19;;;;;;;24.38;6.65;;;22.30;99.90;;;;;;4936741;28;92798;-31
2022/08/29 11:11:59;;;;;;;8.23;4.60;;;22.40;99.90;;;;;;4936753;28;94281;-31
2022/08/29 11:14:33;;;;;;;5.03;3.40;;;22.40;99.90;;;;;;4935181;28;94499;-34
2022/08/29 11:17:01;;;;;;;5.90;4.13;;;22.50;99.90;;;;;;4937006;28;95702;-32
2022/08/29 11:19:48;;;;;;;8.57;3.55;;;22.40;99.90;;;;;;4936878;28;94319;-31
2022/08/29 11:22:24;;;;;;;9.20;4.03;;;22.20;99.90;;;;;;4935892;28;93112;-32
2022/08/29 11:25:01;;;;;;;6.05;3.95;;;22.00;99.90;;;;;;4936454;28;95420;-33
2022/08/29 11:27:39;;;;;;;3.67;3.38;;;21.90;99.90;;;;;;4937317;28;95843;-32
2022/08/29 11:30:22;;;;;;;6.82;4.10;;;21.80;99.90;;;;;;4937229;28;93159;-32
2022/08/29 11:33:00;;;;;;;9.43;3.35;;;21.70;99.90;;;;;;4936379;28;94279;-33
2022/08/29 11:35:32;;;;;;;6.93;3.53;;;21.50;99.90;;;;;;4936194;28;95168;-31
2022/08/29 11:38:36;;;;;;;4.43;3.53;;;21.60;99.90;;;;;;4936009;28;95674;-32
2022/08/29 11:41:11;;;;;;;8.00;4.13;;;21.80;99.90;;;;;;4936679;28;93495;-32
2022/08/29 11:43:46;;;;;;;6.53;3.78;;;21.90;99.90;;;;;;4935380;28;93030;-32
2022/08/29 11:46:13;;;;;;;7.07;3.80;;;22.00;99.90;;;;;;4936198;28;94811;-36
2022/08/29 11:48:43;;;;;;;5.28;4.10;;;22.00;99.90;;;;;;4936468;28;94407;-31
2022/08/29 11:51:32;;;;;;;5.95;3.85;;;21.90;99.90;;;;;;4936789;28;95155;-32
2022/08/29 11:54:23;;;;;;;5.60;2.80;;;21.90;99.90;;;;;;4935955;28;94285;-35
2022/08/29 11:57:09;;;;;;;10.77;3.80;;;21.90;99.90;;;;;;4935454;28;95869;-32
2022/08/29 11:59:47;;;;;;;8.27;4.40;;;21.80;99.90;;;;;;4935169;28;94300;-34
2022/08/29 12:02:40;;;;;;;7.85;4.50;;;21.80;99.90;;;;;;4936364;28;92293;-34
2022/08/29 12:05:15;;;;;;;9.32;5.07;;;21.80;99.90;;;;;;4933836;28;94653;-32
2022/08/29 12:07:48;;;;;;;7.80;4.03;;;21.80;99.90;;;;;;4936115;28;94807;-34
2022/08/29 12:10:22;;;;;;;7.57;3.47;;;21.90;99.90;;;;;;4935954;28;94054;-34
2022/08/29 12:12:52;;;;;;;5.93;3.15;;;21.90;99.90;;;;;;4935983;28;94896;-33
2022/08/29 12:15:26;;;;;;;9.88;4.38;;;22.00;99.90;;;;;;4935261;28;93344;-32
2022/08/29 12:17:52;;;;;;;6.45;4.28;;;21.90;99.90;;;;;;4934537;28;95694;-32
2022/08/29 12:20:45;;;;;;;4.65;3.97;;;21.80;99.90;;;;;;4935869;28;95709;-35
2022/08/29 12:23:14;;;;;;;5.32;3.75;;;21.70;99.90;;;;;;4935325;28;93376;-34
2022/08/29 12:26:26;;;;;;;5.45;4.70;;;21.80;99.90;;;;;;4935045;28;93826;-34
2022/08/29 12:29:00;;;;;;;6.90;3.65;;;21.80;99.90;;;;;;4935631;28;93587;-35
2022/08/29 12:31:40;;;;;;;7.53;4.05;;;21.80;99.90;;;;;;4973276;23;94348;-32
2022/08/29 12:34:37;;;;;;;4.85;2.70;;;22.00;99.90;;;;;;4935170;28;93431;-31
2022/08/29 12:37:47;;;;;;;4.17;3.77;;;22.20;99.90;;;;;;4931541;28;93335;-32
2022/08/29 12:40:26;;;;;;;5.55;4.95;;;22.20;99.90;;;;;;4904869;28;93837;-33
2022/08/29 12:42:57;;;;;;;11.88;5.15;;;22.30;99.90;;;;;;4919186;28;93039;-31
2022/08/29 12:45:26;;;;;;;5.93;3.33;;;22.20;99.90;;;;;;4915030;28;94428;-33
2022/08/29 12:48:10;;;;;;;8.27;4.38;;;22.20;99.90;;;;;;4914431;28;93782;-32
2022/08/29 12:50:44;;;;;;;3.50;3.20;;;22.20;99.90;;;;;;4914421;28;95380;-35
2022/08/29 12:53:36;;;;;;;8.60;4.07;;;22.20;99.90;;;;;;4914704;28;94545;-33
2022/08/29 12:56:15;;;;;;;4.75;3.00;;;22.20;99.90;;;;;;4915348;28;93178;-31
2022/08/29 12:58:45;;;;;;;11.98;4.70;;;22.20;99.90;;;;;;4932190;28;94948;-33
2022/08/29 13:01:38;;;;;;;5.93;3.53;;;22.10;99.90;;;;;;4934524;28;94596;-31
2022/08/29 13:04:10;;;;;;;5.57;3.92;;;22.00;99.90;;;;;;4917932;28;94817;-34
2022/08/29 13:06:48;;;;;;;4.68;3.53;;;21.90;99.90;;;;;;4935069;28;94009;-32
2022/08/29 13:09:33;;;;;;;5.60;3.25;;;21.80;99.90;;;;;;4935092;28;92859;-32
2022/08/29 13:12:19;;;;;;;14.63;4.35;;;21.80;99.90;;;;;;4933880;28;95590;-32
2022/08/29 13:14:59;;;;;;;6.22;4.35;;;21.90;99.90;;;;;;4934396;28;95514;-34